Latest Weather Observations for Cape Moreton

IDQ60801

Issued at 6:32 pm EST Wednesday 28 June 2017 (issued every 30 minutes, with the page automatically refreshed every 10 minutes)

About weather observations | Map of weather stations | Latest weather observations for QLD | Other Formats
Station Details ID: 040043 Name: CAPE MORETON LIGHTHOUSE Lat: -27.03 Lon: 153.47 Height: 99.9 m
Data from the previous 72 hours. | See also: Recent months at Cape Moreton
Date/Time
EST
Temp
°C
App
Temp
°C
Dew
Point
°C
Rel
Hum
%
Delta-T
°C
Wind Press
QNH
hPa
Press
MSL
hPa
Rain since
9am
mm
Dir  Spd
km/h
Gust
km/h
Spd
kts
Gust
kts
28/06:30pm 19.7 17.3 14.3 71 3.1 NNE 20 26 11 14 1023.5 1023.3 0.0
28/06:00pm 19.7 17.0 13.6 68 3.5 NNE 20 26 11 14 1023.3 1023.1 0.0
28/05:30pm 19.8 17.4 14.4 71 3.1 NNE 20 24 11 13 1023.2 1023.0 0.0
28/05:00pm 19.9 17.8 14.7 72 3.0 NNE 19 22 10 12 1023.1 1022.9 0.0
28/04:30pm 20.0 17.7 14.1 69 3.4 NNE 19 24 10 13 1022.9 1022.8 0.0
28/04:00pm 20.5 17.9 13.9 66 3.8 NNE 20 26 11 14 1022.7 1022.6 0.0
28/03:30pm 20.7 18.2 14.1 66 3.8 NNE 20 26 11 14 1022.7 1022.6 0.0
28/03:00pm 21.3 19.0 14.2 64 4.1 NNE 19 24 10 13 1022.7 1022.6 0.0
28/02:30pm 21.3 19.0 14.2 64 4.2 NE 19 24 10 13 1022.6 1022.5 0.0
28/02:00pm 21.0 18.8 14.4 66 3.9 NNE 19 24 10 13 1022.6 1022.5 0.0
28/01:30pm 22.3 20.4 14.2 60 4.8 NNE 17 22 9 12 1022.8 1022.7 0.0
28/01:00pm 22.5 20.6 14.1 59 4.9 NNE 17 22 9 12 1022.9 1022.8 0.0
28/12:30pm 23.1 21.5 14.9 60 4.9 NE 17 24 9 13 1023.5 1023.3 0.0
28/12:00pm 22.5 20.8 14.6 61 4.7 NE 17 20 9 11 1024.1 1023.9 0.0
28/11:30am 23.2 21.8 15.5 62 4.6 NNE 17 20 9 11 1024.6 1024.4 0.0
28/11:00am 23.2 22.3 15.8 63 4.5 NE 15 20 8 11 1025.0 1024.8 0.0
28/10:30am 22.4 21.1 14.8 62 4.5 NE 15 19 8 10 1025.3 1025.1 0.0
28/10:00am 22.5 21.2 14.9 62 4.5 NNE 15 22 8 12 1025.3 1025.1 0.0
28/09:30am 21.6 19.7 14.3 63 4.3 NE 17 22 9 12 1025.3 1025.1 0.0
28/09:00am 21.1 18.9 14.3 65 4.0 NE 19 22 10 12 1025.0 1024.8 0.4
28/08:30am 21.7 20.2 14.1 62 4.4 NE 15 22 8 12 1025.1 1024.9 0.4
28/08:00am 21.0 19.6 14.4 66 3.9 NE 15 20 8 11 1024.8 1024.6 0.4
28/07:30am 19.9 17.9 13.8 68 3.5 NE 17 20 9 11 1024.6 1024.4 0.4
28/07:00am 19.6 17.6 13.8 69 3.3 NE 17 20 9 11 1024.3 1024.1 0.4
28/06:30am 19.4 17.4 13.8 70 3.2 NNE 17 20 9 11 1024.0 1023.8 0.4
28/06:00am 19.4 17.3 13.6 69 3.3 NE 17 20 9 11 1023.6 1023.4 0.4
28/05:30am 19.3 17.6 13.7 70 3.2 NNE 15 20 8 11 1023.3 1023.1 0.4
28/05:00am 19.3 17.2 13.5 69 3.3 NNE 17 20 9 11 1023.3 1023.1 0.4
28/04:30am 19.4 17.0 13.8 70 3.2 NNE 19 22 10 12 1023.2 1023.0 0.4
28/04:00am 19.4 16.8 13.3 68 3.5 NNE 19 24 10 13 1023.2 1023.0 0.4
28/03:30am 19.4 17.3 13.6 69 3.3 NNE 17 22 9 12 1023.4 1023.2 0.4
28/03:00am 19.3 16.7 13.3 68 3.4 NNE 19 24 10 13 1023.5 1023.3 0.4
28/02:30am 19.5 17.1 13.7 69 3.3 NNE 19 24 10 13 1023.6 1023.4 0.4
28/02:00am 19.5 16.9 13.7 69 3.3 NNE 20 26 11 14 1023.7 1023.5 0.4
28/01:30am 19.7 17.1 13.9 69 3.4 NNE 20 26 11 14 1023.7 1023.5 0.4
28/01:00am 19.7 17.2 13.6 68 3.5 NNE 19 24 10 13 1023.8 1023.6 0.4
28/12:30am 19.5 17.5 13.9 70 3.2 NNE 17 24 9 13 1023.9 1023.7 0.4
28/12:00am 19.5 16.8 13.4 68 3.5 NNE 20 28 11 15 1024.1 1023.9 0.4
 
Date/Time
EST
Temp
°C
App
Temp
°C
Dew
Point
°C
Rel
Hum
%
Delta-T
°C
Wind Press
QNH
hPa
Press
MSL
hPa
Rain since
9am
mm
Dir  Spd
km/h
Gust
km/h
Spd
kts
Gust
kts
27/11:30pm 19.6 16.8 13.3 67 3.6 NNE 20 24 11 13 1024.5 1024.3 0.4
27/11:00pm 19.7 17.0 13.6 68 3.5 NNE 20 28 11 15 1024.6 1024.4 0.4
27/10:30pm 19.7 16.7 12.7 64 4.0 NE 20 26 11 14 1024.3 1024.1 0.4
27/10:00pm 19.7 16.7 12.7 64 3.9 NE 20 26 11 14 1024.4 1024.2 0.4
27/09:30pm 19.7 16.7 12.5 63 4.1 NE 20 26 11 14 1024.6 1024.4 0.4
27/09:00pm 20.0 17.6 12.7 63 4.1 NE 17 24 9 13 1024.7 1024.5 0.4
27/08:30pm 19.8 17.0 12.6 63 4.1 ENE 19 28 10 15 1024.5 1024.3 0.4
27/08:00pm 19.8 17.0 12.6 63 4.0 NE 19 24 10 13 1024.4 1024.2 0.4
27/07:30pm 19.7 16.8 12.9 65 3.9 ENE 20 26 11 14 1024.3 1024.1 0.4
27/07:00pm 19.6 16.7 12.8 65 3.8 ENE 20 24 11 13 1024.0 1023.8 0.4
27/06:30pm 19.6 16.6 12.6 64 3.9 ENE 20 24 11 13 1023.8 1023.6 0.4
27/06:00pm 19.6 16.9 12.8 65 3.8 ENE 19 24 10 13 1023.7 1023.5 0.4
27/05:30pm 19.6 16.6 12.6 64 3.9 ENE 20 32 11 17 1023.6 1023.4 0.4
27/05:00pm 19.6 16.6 12.6 64 3.9 ENE 20 26 11 14 1023.6 1023.4 0.4
27/04:30pm 19.5 17.1 12.8 65 3.8 NE 17 22 9 12 1023.3 1023.1 0.4
27/04:00pm 19.3 16.5 13.3 68 3.4 NE 20 26 11 14 1023.3 1023.1 0.4
27/03:30pm 19.4 17.1 14.2 72 3.0 NE 19 24 10 13 1023.4 1023.2 0.4
27/03:00pm 19.3 17.7 13.9 71 3.1 N 15 24 8 13 1023.4 1023.2 0.4
27/02:30pm 19.8 19.3 13.7 68 3.5 ENE 9 13 5 7 1023.4 1023.2 0.4
27/02:00pm 18.9 17.6 13.7 72 3.0 NE 13 15 7 8 1023.3 1023.1 0.4
27/01:30pm 18.8 17.0 14.5 76 2.5 ENE 17 22 9 12 1023.3 1023.1 0.2
27/01:00pm 20.2 20.6 15.2 73 2.9 E 7 9 4 5 1023.6 1023.4 0.0
27/12:30pm 20.4 20.2 14.7 70 3.3 NNE 9 15 5 8 1023.8 1023.6 0.0
27/12:00pm 22.2 20.8 15.5 66 4.0 NE 17 22 9 12 1024.2 1024.0 0.0
27/11:30am 22.1 21.2 15.9 68 3.7 NNE 15 20 8 11 1024.4 1024.2 0.0
27/11:00am 21.9 21.1 16.2 70 3.4 NE 15 20 8 11 1024.8 1024.6 0.0
27/10:30am 20.3 19.3 16.7 80 2.2 NE 17 20 9 11 1024.9 1024.7 0.0
27/10:00am 20.4 21.1 15.6 74 2.9 WNW 6 7 3 4 1025.3 1025.1 0.0
27/09:30am 20.3 20.7 15.3 73 3.0 NE 7 13 4 7 1025.4 1025.2 0.0
27/09:00am 19.6 19.4 15.7 78 2.3 NNW 11 17 6 9 1025.1 1024.9 0.0
27/08:30am 19.2 19.2 16.2 83 1.8 WNW 11 15 6 8 1024.8 1024.6 0.0
27/08:00am 19.2 19.1 15.9 81 2.0 WNW 11 15 6 8 1024.5 1024.3 0.0
27/07:30am 20.1 18.9 14.0 68 3.5 ENE 13 17 7 9 1024.4 1024.2 0.0
27/07:00am 19.7 17.8 14.1 70 3.2 E 17 19 9 10 1023.8 1023.6 0.0
27/06:30am 19.4 17.0 13.8 70 3.2 E 19 24 10 13 1023.4 1023.2 0.0
27/06:00am 19.5 16.9 13.7 69 3.3 E 20 28 11 15 1023.1 1022.9 0.0
27/05:30am 19.8 16.6 14.2 70 3.3 E 24 32 13 17 1022.7 1022.6 0.0
27/05:00am 20.0 16.6 14.8 72 3.0 E 26 32 14 17 1022.5 1022.4 0.0
27/04:30am 19.9 16.7 15.3 75 2.7 E 26 32 14 17 1022.4 1022.3 0.0
27/04:00am 20.0 18.4 15.0 73 2.9 E 17 26 9 14 1022.4 1022.3 0.0
27/03:30am 19.6 17.5 13.5 68 3.5 ESE 17 20 9 11 1022.4 1022.3 0.0
27/03:00am 19.5 17.2 13.0 66 3.7 ESE 17 20 9 11 1022.6 1022.5 0.0
27/02:30am 19.8 17.5 14.0 69 3.4 ESE 19 24 10 13 1022.6 1022.5 0.0
27/02:00am 19.9 17.3 13.8 68 3.5 ESE 20 24 11 13 1022.5 1022.4 0.0
27/01:30am 19.8 17.2 13.7 68 3.5 ESE 20 24 11 13 1022.6 1022.5 0.0
27/01:00am 20.1 16.9 14.2 69 3.4 ESE 24 30 13 16 1022.5 1022.4 0.0
27/12:30am 20.1 17.2 14.0 68 3.5 ESE 22 28 12 15 1022.5 1022.4 0.0
27/12:00am 20.2 17.5 14.6 70 3.3 E 22 28 12 15 1022.7 1022.6 0.0
 
Date/Time
EST
Temp
°C
App
Temp
°C
Dew
Point
°C
Rel
Hum
%
Delta-T
°C
Wind Press
QNH
hPa
Press
MSL
hPa
Rain since
9am
mm
Dir  Spd
km/h
Gust
km/h
Spd
kts
Gust
kts
26/11:30pm 19.9 17.1 14.3 70 3.3 E 22 28 12 15 1022.9 1022.8 0.0
26/11:00pm 20.0 17.2 14.4 70 3.3 E 22 28 12 15 1022.8 1022.7 0.0
26/10:30pm 20.0 17.2 14.4 70 3.3 E 22 28 12 15 1022.9 1022.8 0.0
26/10:00pm 19.9 17.3 14.9 73 2.9 E 22 28 12 15 1023.1 1022.9 0.0
26/09:30pm 19.9 17.3 14.9 73 2.9 ESE 22 26 12 14 1022.9 1022.8 0.0
26/09:00pm 19.7 16.4 14.9 74 2.8 E 26 32 14 17 1022.5 1022.4 0.0
26/08:30pm 19.7 15.9 14.7 73 2.9 ESE 28 32 15 17 1022.2 1022.1 0.0
26/08:00pm 19.9 16.2 15.1 74 2.8 ESE 28 33 15 18 1022.0 1021.9 0.0
26/07:30pm 19.7 15.8 14.3 71 3.1 ESE 28 33 15 18 1021.9 1021.8 0.0
26/07:00pm 19.8 15.7 15.0 74 2.8 ESE 30 37 16 20 1021.5 1021.4 0.0
26/06:30pm 19.9 15.9 15.1 74 2.8 ESE 30 33 16 18 1021.2 1021.1 0.0
26/06:00pm 19.8 15.1 14.2 70 3.2 ESE 32 35 17 19 1020.7 1020.6 0.0
26/05:30pm 19.7 15.6 14.9 74 2.8 ESE 30 35 16 19 1020.5 1020.4 0.0
26/05:00pm 19.6 16.5 15.7 78 2.3 ESE 26 32 14 17 1020.3 1020.2 0.0
26/04:30pm 20.0 17.2 15.4 75 2.7 SE 24 30 13 16 1020.3 1020.2 0.0
26/04:00pm 20.2 17.6 14.8 71 3.2 SSE 22 28 12 15 1020.3 1020.2 0.0
26/03:30pm 20.2 17.7 13.6 66 3.8 SSE 19 26 10 14 1020.0 1019.9 0.0
26/03:00pm 20.6 18.6 12.6 60 4.5 SSE 15 20 8 11 1019.7 1019.5 0.0
26/02:30pm 20.8 18.5 13.0 61 4.5 SSE 17 24 9 13 1019.6 1019.4 0.0
26/02:00pm 21.1 18.5 13.3 61 4.5 SSE 19 22 10 12 1019.7 1019.5 0.0
26/01:30pm 21.3 20.5 15.2 68 3.6 SE 13 17 7 9 1019.7 1019.5 0.0
26/01:00pm 21.4 20.9 15.9 71 3.3 SE 13 17 7 9 1019.8 1019.6 0.0
26/12:30pm 21.2 18.5 11.8 55 5.3 W 17 20 9 11 1020.1 1020.0 0.0
26/12:00pm 21.1 19.1 12.8 59 4.7 W 15 19 8 10 1020.5 1020.4 0.0
26/11:30am 20.9 18.9 12.6 59 4.7 W 15 20 8 11 1020.8 1020.7 0.0
26/11:00am 20.3 17.8 12.3 60 4.5 W 17 20 9 11 1021.1 1021.0 0.0
26/10:30am 20.1 18.2 13.1 64 4.0 W 15 20 8 11 1021.3 1021.2 0.0
26/10:00am 19.5 17.7 13.2 67 3.6 W 15 20 8 11 1021.5 1021.4 0.0
26/09:30am 19.2 18.7 13.8 71 3.1 W 9 15 5 8 1021.5 1021.4 0.0
26/09:00am 18.5 18.4 16.1 86 1.4 W 11 17 6 9 1021.4 1021.3 0.0
26/08:30am 17.5 16.6 15.8 90 1.0 W 15 19 8 10 1021.1 1021.0 0.0
26/08:00am 16.8 15.3 16.3 97 0.3 W 19 20 10 11 1020.6 1020.5 0.0
26/07:30am 16.7 15.4 15.9 95 0.5 W 17 19 9 10 1020.3 1020.2 0.0
26/07:00am 17.0 15.4 16.0 94 0.6 W 19 20 10 11 1020.0 1019.9 0.0
26/06:30am 16.7 15.2 15.2 91 0.9 W 17 19 9 10 1019.7 1019.5 0.0
26/06:00am 17.0 15.1 15.2 89 1.0 W 19 20 10 11 1019.5 1019.3 0.0
26/05:30am 17.1 15.0 15.1 88 1.2 W 20 24 11 13 1019.3 1019.1 0.0
26/05:00am 17.1 14.9 14.9 87 1.3 W 20 24 11 13 1019.1 1018.9 0.0
26/04:30am 16.9 14.8 15.2 90 1.0 W 20 24 11 13 1019.0 1018.8 0.0
26/04:00am 17.3 15.8 16.3 94 0.6 W 19 24 10 13 1019.0 1018.8 0.0
26/03:30am 17.5 16.0 16.7 95 0.5 W 20 24 11 13 1019.0 1018.8 0.0
26/03:00am 17.5 16.3 17.0 97 0.3 W 19 20 10 11 1019.1 1018.9 0.0
26/02:30am 18.0 17.3 17.4 96 0.4 W 17 19 9 10 1019.2 1019.0 0.0
26/02:00am 18.4 17.7 17.4 94 0.6 W 17 22 9 12 1019.4 1019.2 0.0
26/01:30am 18.8 18.8 18.0 95 0.5 WNW 15 20 8 11 1019.3 1019.1 0.0
26/01:00am 19.1 18.9 17.6 91 0.9 WNW 15 19 8 10 1019.3 1019.1 0.0
26/12:30am 19.9 18.9 17.5 86 1.5 WNW 19 24 10 13 1019.4 1019.2 0.0
26/12:00am 20.2 18.2 15.4 74 2.8 N 20 30 11 16 1019.5 1019.3 0.0
 
Date/Time
EST
Temp
°C
App
Temp
°C
Dew
Point
°C
Rel
Hum
%
Delta-T
°C
Wind Press
QNH
hPa
Press
MSL
hPa
Rain since
9am
mm
Dir  Spd
km/h
Gust
km/h
Spd
kts
Gust
kts
25/11:30pm 20.1 18.2 15.1 73 3.0 N 19 22 10 12 1019.6 1019.4 0.0
25/11:00pm 20.1 18.1 14.9 72 3.1 N 19 24 10 13 1019.9 1019.7 0.0
25/10:30pm 20.1 18.5 14.9 72 3.1 N 17 24 9 13 1020.1 1020.0 0.0
25/10:00pm 19.9 18.2 14.7 72 3.0 N 17 20 9 11 1020.0 1019.9 0.0
25/09:30pm 19.9 18.2 14.7 72 3.0 N 17 22 9 12 1019.8 1019.6 0.0
25/09:00pm 20.0 17.7 14.1 69 3.4 N 19 24 10 13 1019.7 1019.5 0.0
25/08:30pm 19.8 17.6 14.4 71 3.1 NNE 19 24 10 13 1019.6 1019.4 0.0
25/08:00pm 19.7 17.9 14.5 72 3.0 NNE 17 20 9 11 1019.6 1019.4 0.0
25/07:30pm 19.7 18.3 14.5 72 3.0 NNE 15 19 8 10 1019.5 1019.3 0.0
25/07:00pm 19.7 17.9 14.5 72 3.0 NNE 17 22 9 12 1019.1 1018.9 0.0

Other Formats:

Comma delimited format used in spreadsheet applications
http://www.bom.gov.au/fwo/IDQ60801/IDQ60801.94594.axf

JavaScript Object Notation format (JSON) in row-major order
http://www.bom.gov.au/fwo/IDQ60801/IDQ60801.94594.json